createdAt,value
2023-04-09T08:01:55.848Z,5.10
2023-04-09T08:04:24.087Z,5.00
2023-04-09T08:06:52.222Z,5.20
2023-04-09T08:09:20.885Z,5.13
2023-04-09T08:11:49.271Z,4.50
2023-04-09T08:14:19.000Z,6.07
2023-04-09T08:16:48.552Z,5.47
2023-04-09T08:19:19.070Z,6.07
2023-04-09T08:21:48.752Z,4.63
2023-04-09T08:24:16.755Z,4.43
2023-04-09T08:26:45.003Z,4.53
2023-04-09T08:29:13.967Z,4.50
2023-04-09T08:31:42.498Z,5.13
2023-04-09T08:34:10.675Z,5.93
2023-04-09T08:36:39.987Z,5.27
2023-04-09T08:39:08.047Z,5.70
2023-04-09T08:41:37.594Z,5.63
2023-04-09T08:44:06.150Z,4.87
2023-04-09T08:46:36.865Z,5.50
2023-04-09T08:49:05.088Z,5.60
2023-04-09T08:51:33.015Z,5.07
2023-04-09T08:54:04.726Z,5.07
2023-04-09T08:56:33.513Z,4.60
2023-04-09T08:59:01.436Z,6.83
2023-04-09T09:01:31.296Z,5.80
2023-04-09T09:04:01.377Z,5.70
2023-04-09T09:06:33.219Z,6.80
2023-04-09T09:09:07.697Z,7.10
2023-04-09T09:11:36.948Z,6.80
2023-04-09T09:14:06.238Z,6.60
2023-04-09T09:16:35.962Z,7.07
2023-04-09T09:19:04.682Z,6.50
2023-04-09T09:21:33.342Z,6.65
2023-04-09T09:24:03.186Z,7.27
2023-04-09T09:26:32.195Z,7.93
2023-04-09T09:29:05.733Z,6.97
2023-04-09T09:31:47.594Z,7.50
2023-04-09T09:34:15.917Z,7.20
2023-04-09T09:36:44.605Z,6.63
2023-04-09T09:39:16.039Z,7.13
2023-04-09T09:41:44.436Z,6.90
2023-04-09T09:44:14.299Z,7.37
2023-04-09T09:46:43.268Z,8.40
2023-04-09T09:49:11.395Z,7.10
2023-04-09T09:51:42.173Z,8.43
2023-04-09T09:54:13.025Z,8.23
2023-04-09T09:56:44.794Z,7.03
2023-04-09T09:59:17.419Z,6.97
2023-04-09T10:01:46.785Z,7.60
2023-04-09T10:04:17.148Z,6.70
2023-04-09T10:06:46.706Z,7.70
2023-04-09T10:09:15.112Z,7.90
2023-04-09T10:11:47.862Z,8.37
2023-04-09T10:14:17.640Z,7.13
2023-04-09T10:16:45.878Z,8.17
2023-04-09T10:19:15.318Z,7.47
2023-04-09T10:21:48.666Z,9.00
2023-04-09T10:24:18.204Z,7.93
2023-04-09T10:26:47.728Z,8.30
2023-04-09T10:29:18.096Z,6.73
2023-04-09T10:31:52.386Z,8.23
2023-04-09T10:34:23.613Z,8.70
2023-04-09T10:36:53.988Z,8.40
2023-04-09T10:39:22.195Z,7.87
2023-04-09T10:41:53.269Z,7.80
2023-04-09T10:44:22.780Z,8.00
2023-04-09T10:46:51.260Z,6.60
2023-04-09T10:49:21.064Z,7.60
2023-04-09T10:51:56.062Z,8.90
2023-04-09T10:54:54.050Z,8.50
2023-04-09T10:57:24.574Z,8.60
2023-04-09T10:59:53.865Z,7.47
2023-04-09T11:03:09.981Z,8.77
2023-04-09T11:05:39.269Z,7.23
2023-04-09T11:08:10.905Z,7.27
2023-04-09T11:10:40.909Z,7.47
2023-04-09T11:13:13.221Z,7.10
2023-04-09T11:15:41.187Z,7.20
2023-04-09T11:18:09.928Z,7.80
2023-04-09T11:20:38.141Z,6.53
2023-04-09T11:23:06.749Z,6.57
2023-04-09T11:25:36.197Z,7.33
2023-04-09T11:28:05.995Z,6.13
2023-04-09T11:30:36.134Z,7.50
2023-04-09T11:33:04.513Z,8.10
2023-04-09T11:35:35.742Z,5.73
2023-04-09T11:38:09.386Z,7.32
2023-04-09T11:40:37.599Z,6.20
2023-04-09T11:43:09.068Z,7.00
2023-04-09T11:45:38.702Z,6.80
2023-04-09T11:48:07.210Z,7.50
2023-04-09T11:50:35.751Z,8.10
2023-04-09T11:53:16.126Z,7.90
2023-04-09T11:55:44.213Z,7.03
2023-04-09T11:58:13.581Z,6.87
2023-04-09T12:00:43.184Z,7.30
2023-04-09T12:03:12.170Z,6.50
2023-04-09T12:05:42.832Z,7.30
2023-04-09T12:08:13.695Z,7.90
2023-04-09T12:10:41.815Z,8.20
2023-04-09T12:13:11.419Z,8.70
2023-04-09T12:15:41.303Z,8.30
2023-04-09T12:18:11.779Z,6.77
2023-04-09T12:20:41.410Z,6.97
2023-04-09T12:23:10.412Z,6.60
2023-04-09T12:25:39.521Z,6.67
2023-04-09T12:28:09.008Z,9.40
2023-04-09T12:30:37.086Z,7.20
2023-04-09T12:33:06.149Z,7.00
2023-04-09T12:35:37.864Z,7.73
2023-04-09T12:38:06.268Z,7.87
2023-04-09T12:40:34.477Z,7.37
2023-04-09T12:43:02.403Z,8.50
2023-04-09T12:45:31.449Z,7.53
2023-04-09T12:47:59.759Z,6.63
2023-04-09T12:50:28.356Z,8.33
2023-04-09T12:52:57.702Z,7.07
2023-04-09T12:55:25.801Z,7.10
2023-04-09T12:57:53.754Z,7.23
2023-04-09T13:00:21.732Z,8.43
2023-04-09T13:02:50.170Z,7.80
2023-04-09T13:05:18.241Z,7.50
2023-04-09T13:07:46.824Z,6.07
2023-04-09T13:10:16.186Z,7.73
2023-04-09T13:12:44.108Z,7.90
2023-04-09T13:15:13.162Z,7.20
2023-04-09T13:17:41.116Z,7.50
2023-04-09T13:20:10.210Z,7.27
2023-04-09T13:22:38.190Z,7.80
2023-04-09T13:25:06.777Z,8.33
2023-04-09T13:27:36.261Z,7.97
2023-04-09T13:30:04.369Z,7.40
2023-04-09T13:32:32.465Z,7.87
2023-04-09T13:35:00.431Z,8.30
2023-04-09T13:37:28.621Z,8.00
2023-04-09T13:39:56.875Z,6.80
2023-04-09T13:42:24.783Z,8.67
2023-04-09T13:44:54.174Z,8.13
2023-04-09T13:47:24.048Z,7.43
2023-04-09T13:49:53.030Z,7.80
2023-04-09T13:52:21.155Z,8.53
2023-04-09T13:54:49.396Z,8.03
2023-04-09T13:57:17.765Z,7.70
2023-04-09T13:59:45.883Z,8.10
2023-04-09T14:02:15.373Z,8.03
2023-04-09T14:04:43.854Z,7.40
2023-04-09T14:07:11.943Z,7.47
2023-04-09T14:09:39.998Z,7.70
2023-04-09T14:12:07.881Z,7.00
2023-04-09T14:14:35.866Z,7.00
2023-04-09T14:17:03.911Z,6.53
2023-04-09T14:19:33.168Z,6.57
2023-04-09T14:22:01.490Z,5.07
2023-04-09T14:24:29.360Z,6.33
2023-04-09T14:26:57.730Z,6.30
2023-04-09T14:29:25.986Z,7.57
2023-04-09T14:31:57.154Z,6.77
2023-04-09T14:34:25.458Z,5.90
2023-04-09T14:36:54.863Z,6.77
2023-04-09T14:39:22.782Z,5.87
2023-04-09T14:41:50.770Z,5.50
2023-04-09T14:44:19.017Z,4.60
2023-04-09T14:46:47.088Z,4.60
2023-04-09T14:49:15.392Z,5.30
2023-04-09T14:51:43.557Z,4.70
2023-04-09T14:54:13.139Z,6.07
2023-04-09T14:56:41.236Z,5.50
2023-04-09T14:59:09.212Z,7.00
2023-04-09T15:01:37.301Z,6.70
2023-04-09T15:04:05.497Z,6.80
2023-04-09T15:06:33.795Z,7.27
2023-04-09T15:09:01.769Z,7.10
2023-04-09T15:11:31.243Z,7.80
2023-04-09T15:13:59.255Z,7.07
2023-04-09T15:16:29.165Z,7.10
2023-04-09T15:18:59.057Z,7.00
2023-04-09T15:21:27.200Z,6.20
2023-04-09T15:23:56.269Z,6.57
2023-04-09T15:26:24.378Z,6.70
2023-04-09T15:28:54.208Z,6.23
2023-04-09T15:31:22.411Z,6.70
2023-04-09T15:33:50.746Z,5.30
2023-04-09T15:36:18.648Z,5.57
2023-04-09T15:38:46.565Z,6.20
2023-04-09T15:41:17.080Z,6.37
2023-04-09T15:43:45.269Z,5.97
2023-04-09T15:46:16.276Z,5.93
2023-04-09T15:48:44.752Z,5.83
2023-04-09T15:51:13.792Z,6.10
2023-04-09T15:53:41.750Z,4.73
2023-04-09T15:56:15.278Z,5.00
2023-04-09T15:58:43.673Z,4.37
2023-04-09T16:01:12.846Z,5.50
2023-04-09T16:03:42.165Z,5.60
2023-04-09T16:06:13.265Z,5.40
2023-04-09T16:08:41.803Z,5.63
2023-04-09T16:11:10.506Z,5.20
2023-04-09T16:13:38.640Z,5.30
2023-04-09T16:16:08.018Z,5.73
2023-04-09T16:18:36.100Z,5.93
2023-04-09T16:21:06.077Z,6.63
2023-04-09T16:23:34.251Z,5.70
2023-04-09T16:26:02.166Z,5.67
2023-04-09T16:28:30.208Z,6.23
2023-04-09T16:30:58.200Z,4.97
2023-04-09T16:33:26.402Z,5.43
2023-04-09T16:35:54.357Z,5.40
2023-04-09T16:38:24.684Z,5.33
2023-04-09T16:40:52.890Z,4.80
2023-04-09T16:43:20.851Z,5.43
2023-04-09T16:45:48.784Z,5.80
2023-04-09T16:48:17.076Z,5.60
2023-04-09T16:50:45.152Z,5.10
2023-04-09T16:53:13.217Z,5.10
2023-04-09T16:55:43.498Z,4.83
2023-04-09T16:58:11.419Z,5.77
2023-04-09T17:00:40.252Z,4.90
2023-04-09T17:03:08.454Z,5.43
2023-04-09T17:05:36.812Z,5.40
2023-04-09T17:08:06.135Z,6.10
2023-04-09T17:10:34.266Z,5.33
2023-04-09T17:13:03.516Z,5.97
2023-04-09T17:15:31.558Z,5.23
2023-04-09T17:17:59.802Z,5.07
2023-04-09T17:20:29.639Z,5.10
2023-04-09T17:22:57.540Z,5.20
2023-04-09T17:25:25.920Z,5.20
2023-04-09T17:27:54.623Z,5.93
2023-04-09T17:30:24.038Z,4.93
2023-04-09T17:32:52.389Z,5.57
2023-04-09T17:35:20.398Z,6.40
2023-04-09T17:37:48.473Z,5.50
2023-04-09T17:40:18.688Z,5.57
2023-04-09T17:42:46.956Z,5.03
2023-04-09T17:45:15.297Z,4.63
2023-04-09T17:47:44.764Z,5.43
2023-04-09T17:50:13.352Z,4.53
2023-04-09T17:52:41.245Z,5.07
2023-04-09T17:55:11.846Z,5.43
2023-04-09T17:57:40.249Z,4.60
2023-04-09T18:00:09.794Z,5.40
2023-04-09T18:02:38.464Z,5.40
2023-04-09T18:05:08.586Z,4.43
2023-04-09T18:07:36.889Z,5.00
2023-04-09T18:10:05.455Z,4.80
2023-04-09T18:12:34.078Z,4.47
2023-04-09T18:15:02.221Z,5.43
2023-04-09T18:17:30.310Z,4.70
2023-04-09T18:19:58.711Z,4.30
2023-04-09T18:22:28.033Z,4.77
2023-04-09T18:24:56.487Z,5.07
2023-04-09T18:27:25.114Z,5.30
2023-04-09T18:29:53.027Z,5.03
2023-04-09T18:32:20.999Z,5.13
2023-04-09T18:34:49.289Z,5.93
2023-04-09T18:37:17.367Z,4.50
2023-04-09T18:39:47.265Z,5.00
2023-04-09T18:42:15.437Z,4.50
2023-04-09T18:44:44.708Z,4.13
2023-04-09T18:47:12.845Z,4.80
2023-04-09T18:49:40.868Z,4.97
2023-04-09T18:52:09.257Z,4.43
2023-04-09T18:54:38.541Z,5.57
2023-04-09T18:57:08.773Z,4.93
2023-04-09T18:59:37.002Z,5.00
2023-04-09T19:02:06.056Z,5.63
2023-04-09T19:04:36.293Z,5.10
2023-04-09T19:07:04.831Z,5.30
2023-04-09T19:09:33.739Z,6.03
2023-04-09T19:12:02.075Z,5.80
2023-04-09T19:14:31.676Z,6.30
2023-04-09T19:16:59.928Z,6.50
2023-04-09T19:19:28.965Z,5.70
2023-04-09T19:21:57.441Z,6.00
2023-04-09T19:24:25.948Z,6.60
2023-04-09T19:26:53.994Z,5.40
2023-04-09T19:29:22.027Z,5.60
2023-04-09T19:31:51.415Z,5.53
2023-04-09T19:34:19.529Z,6.77
2023-04-09T19:36:47.449Z,6.00
2023-04-09T19:39:15.804Z,6.27
2023-04-09T19:41:43.756Z,5.57
2023-04-09T19:44:11.659Z,5.60
2023-04-09T19:46:39.906Z,5.90
2023-04-09T19:49:09.378Z,6.23
2023-04-09T19:51:37.469Z,5.97
2023-04-09T19:54:05.364Z,6.57
2023-04-09T19:56:33.593Z,6.27
2023-04-09T19:59:02.210Z,6.13
2023-04-09T20:01:30.220Z,6.63
2023-04-09T20:03:58.570Z,6.07
2023-04-09T20:06:29.027Z,6.00
2023-04-09T20:08:56.986Z,5.90
2023-04-09T20:11:24.871Z,6.07
2023-04-09T20:13:53.054Z,7.03
2023-04-09T20:16:20.959Z,5.90
2023-04-09T20:18:48.879Z,6.90
2023-04-09T20:21:17.100Z,6.10
2023-04-09T20:23:46.581Z,6.60
2023-04-09T20:26:14.868Z,6.70
2023-04-09T20:28:42.885Z,6.50
2023-04-09T20:31:10.942Z,6.90
2023-04-09T20:33:38.879Z,8.13
2023-04-09T20:36:15.751Z,7.40
2023-04-09T20:38:44.111Z,6.60
2023-04-09T20:41:13.421Z,7.40
2023-04-09T20:43:41.313Z,7.13
2023-04-09T20:46:09.756Z,6.60
2023-04-09T20:48:37.980Z,7.20
2023-04-09T20:51:10.861Z,7.20
2023-04-09T20:53:39.556Z,7.33
2023-04-09T20:56:09.263Z,7.70
2023-04-09T20:58:38.860Z,7.93
2023-04-09T21:01:09.156Z,7.77
2023-04-09T21:03:38.512Z,7.53
2023-04-09T21:06:07.253Z,7.10
2023-04-09T21:08:36.468Z,7.57
2023-04-09T21:11:04.717Z,7.33
2023-04-09T21:13:40.381Z,7.53
2023-04-09T21:16:16.621Z,7.60
2023-04-09T21:18:44.804Z,7.73
2023-04-09T21:21:13.711Z,7.20
2023-04-09T21:23:41.953Z,7.77
2023-04-09T21:26:11.265Z,7.37
2023-04-09T21:28:39.157Z,6.63
2023-04-09T21:31:07.528Z,7.57
2023-04-09T21:33:39.055Z,6.50
2023-04-09T21:36:08.384Z,7.60
2023-04-09T21:38:36.488Z,7.60
2023-04-09T21:41:04.764Z,7.97
2023-04-09T21:43:32.704Z,6.87
2023-04-09T21:46:01.098Z,7.77
2023-04-09T21:48:30.591Z,7.27
2023-04-09T21:51:00.125Z,7.70
2023-04-09T21:53:28.167Z,7.60
2023-04-09T21:55:56.225Z,6.97
2023-04-09T21:58:24.257Z,5.93
2023-04-09T22:00:52.471Z,7.33
2023-04-09T22:03:20.859Z,6.87
2023-04-09T22:05:49.030Z,7.10
2023-04-09T22:08:18.615Z,6.20
2023-04-09T22:10:46.678Z,7.50
2023-04-09T22:13:14.569Z,7.03
2023-04-09T22:15:43.236Z,6.83
2023-04-09T22:18:11.415Z,7.50
2023-04-09T22:20:39.300Z,7.53
2023-04-09T22:23:08.848Z,7.23
2023-04-09T22:25:38.133Z,7.10
2023-04-09T22:28:07.227Z,7.17
2023-04-09T22:30:35.640Z,6.73
2023-04-09T22:33:03.587Z,6.97
2023-04-09T22:35:32.535Z,6.00
2023-04-09T22:38:00.753Z,7.57
2023-04-09T22:40:28.791Z,7.33
2023-04-09T22:42:58.099Z,7.30
2023-04-09T22:45:28.022Z,7.30
2023-04-09T22:47:57.206Z,6.83
2023-04-09T22:50:27.758Z,7.37
2023-04-09T22:52:55.917Z,7.20
2023-04-09T22:55:24.061Z,7.50
2023-04-09T22:57:51.952Z,6.90
2023-04-09T23:00:22.181Z,7.03
2023-04-09T23:02:51.215Z,7.63
2023-04-09T23:05:19.403Z,7.13
2023-04-09T23:07:48.088Z,6.40
2023-04-09T23:10:17.508Z,7.33
2023-04-09T23:12:45.585Z,6.67
2023-04-09T23:15:13.663Z,7.07
2023-04-09T23:17:42.999Z,7.47
2023-04-09T23:20:15.115Z,7.13
2023-04-09T23:22:43.128Z,6.90
2023-04-09T23:25:11.535Z,6.53
2023-04-09T23:27:39.418Z,8.07
2023-04-09T23:30:08.884Z,7.80
2023-04-09T23:32:37.019Z,7.40
2023-04-09T23:35:07.218Z,6.33
2023-04-09T23:37:35.246Z,6.80
2023-04-09T23:40:03.914Z,6.63
2023-04-09T23:42:33.921Z,7.60
2023-04-09T23:45:04.024Z,7.20
2023-04-09T23:47:33.807Z,7.90
2023-04-09T23:50:05.063Z,6.32
2023-04-09T23:52:35.323Z,7.00
2023-04-09T23:55:03.432Z,6.90
2023-04-09T23:57:31.497Z,7.40
2023-04-09T23:59:59.623Z,6.97
